Time;durP1;ratioP1;P1;durP2;ratioP2;P2;SDS_P1;SDS_P2;PMS_P1;PMS_P2;Temp;Humidity;BMP_temperature;BMP_pressure;BME280_temperature;BME280_humidity;BME280_pressure;Samples;Min_cycle;Max_cycle;Signal;HPM_P1;HPM_P2
2023/06/15 00:02:23;;;;;;;13.07;3.65;;;25.50;99.90;;;;;;4959314;28;20039;-56
2023/06/15 00:04:51;;;;;;;11.27;4.35;;;25.40;99.90;;;;;;4960674;28;20388;-55
2023/06/15 00:07:16;;;;;;;11.77;3.88;;;25.40;99.90;;;;;;4962081;28;20602;-55
2023/06/15 00:09:42;;;;;;;12.15;3.42;;;25.30;99.90;;;;;;4963522;28;20134;-54
2023/06/15 00:12:09;;;;;;;13.65;3.65;;;25.20;99.90;;;;;;4958365;28;20042;-60
2023/06/15 00:14:36;;;;;;;11.57;4.82;;;25.20;99.90;;;;;;4959955;28;20031;-55
2023/06/15 00:17:03;;;;;;;13.90;3.67;;;25.20;99.90;;;;;;4951091;28;20051;-54
2023/06/15 00:19:28;;;;;;;13.65;4.00;;;25.10;99.90;;;;;;4953438;28;20015;-54
2023/06/15 00:21:56;;;;;;;9.25;3.90;;;25.10;99.90;;;;;;4952261;28;20022;-53
2023/06/15 00:24:22;;;;;;;8.82;3.30;;;25.10;99.90;;;;;;4954208;28;20024;-54
2023/06/15 00:26:48;;;;;;;10.40;3.92;;;25.00;99.90;;;;;;4953667;28;20030;-53
2023/06/15 00:29:13;;;;;;;13.30;4.28;;;25.00;99.90;;;;;;4952649;28;20408;-54
2023/06/15 00:31:39;;;;;;;13.32;4.00;;;25.00;99.90;;;;;;4953346;28;20054;-54
2023/06/15 00:34:05;;;;;;;8.25;3.47;;;25.00;99.90;;;;;;4953329;28;20034;-54
2023/06/15 00:36:31;;;;;;;15.38;4.13;;;25.00;99.90;;;;;;4955243;28;20420;-55
2023/06/15 00:38:57;;;;;;;9.55;3.22;;;25.00;99.90;;;;;;4959126;28;20023;-54
2023/06/15 00:41:22;;;;;;;11.10;3.72;;;25.00;99.90;;;;;;4952427;28;20039;-54
2023/06/15 00:43:48;;;;;;;8.43;3.35;;;25.00;99.90;;;;;;4951027;28;20059;-56
2023/06/15 00:46:15;;;;;;;10.32;3.08;;;25.00;99.90;;;;;;4951797;28;20039;-55
2023/06/15 00:48:42;;;;;;;11.88;3.30;;;25.00;99.90;;;;;;4952072;28;20030;-55
2023/06/15 00:51:08;;;;;;;7.43;2.83;;;25.10;99.90;;;;;;4952318;28;20046;-53
2023/06/15 00:53:35;;;;;;;8.13;2.72;;;25.20;99.90;;;;;;4951765;28;20035;-55
2023/06/15 00:56:02;;;;;;;6.78;2.83;;;25.30;99.90;;;;;;4952888;28;20030;-56
2023/06/15 00:58:27;;;;;;;8.27;2.90;;;25.40;99.90;;;;;;4953161;28;20089;-53
2023/06/15 01:00:54;;;;;;;8.85;3.20;;;25.50;99.90;;;;;;4949330;28;20047;-56
2023/06/15 01:03:20;;;;;;;7.60;2.63;;;25.60;99.90;;;;;;4953222;28;20435;-56
2023/06/15 01:05:54;;;;;;;6.05;2.63;;;25.70;99.90;;;;;;4962087;28;20471;-56
2023/06/15 01:08:23;;;;;;;8.27;2.50;;;25.80;99.90;;;;;;4965184;28;20034;-56
2023/06/15 01:10:52;;;;;;;7.15;2.40;;;25.80;99.90;;;;;;4951972;28;20446;-56
2023/06/15 01:13:20;;;;;;;10.00;2.65;;;25.90;99.90;;;;;;4952098;28;20487;-56
2023/06/15 01:15:48;;;;;;;6.75;2.55;;;26.00;99.90;;;;;;4951903;28;20027;-56
2023/06/15 01:18:20;;;;;;;7.75;2.83;;;26.00;99.90;;;;;;4959498;28;20487;-55
2023/06/15 01:20:48;;;;;;;5.60;2.83;;;26.10;99.90;;;;;;4951733;28;20031;-56
2023/06/15 01:23:40;;;;;;;8.30;2.67;;;26.10;99.90;;;;;;4956345;28;20019;-55
2023/06/15 01:26:08;;;;;;;8.32;2.63;;;26.20;99.90;;;;;;4948002;28;20020;-54
2023/06/15 01:28:40;;;;;;;8.40;2.55;;;26.30;99.90;;;;;;4934400;29;20023;-55
2023/06/15 01:31:07;;;;;;;9.18;2.90;;;26.30;99.90;;;;;;4935162;29;20491;-56
2023/06/15 01:33:33;;;;;;;5.77;2.30;;;26.30;99.90;;;;;;4939973;29;20440;-55
2023/06/15 01:35:58;;;;;;;5.18;2.17;;;26.40;99.90;;;;;;4952754;29;20031;-56
2023/06/15 01:38:29;;;;;;;7.72;2.17;;;26.40;99.90;;;;;;4949529;29;20028;-56
2023/06/15 01:40:56;;;;;;;9.15;2.85;;;26.40;99.90;;;;;;4934809;29;20027;-56
2023/06/15 01:43:26;;;;;;;6.03;2.35;;;26.40;99.90;;;;;;4937241;29;20016;-56
2023/06/15 01:45:54;;;;;;;6.05;2.28;;;26.50;99.90;;;;;;4945397;29;20155;-56
2023/06/15 01:48:20;;;;;;;6.13;2.80;;;26.50;99.90;;;;;;4935576;29;20028;-58
2023/06/15 01:50:48;;;;;;;5.13;2.45;;;26.50;99.90;;;;;;4935036;29;20050;-57
2023/06/15 01:53:13;;;;;;;7.10;2.10;;;26.50;99.90;;;;;;4935288;29;20019;-57
2023/06/15 01:55:40;;;;;;;4.95;2.08;;;26.50;99.90;;;;;;4939730;29;20042;-57
2023/06/15 01:58:05;;;;;;;5.40;2.85;;;26.50;99.90;;;;;;4943903;29;20234;-56
2023/06/15 02:00:31;;;;;;;8.45;2.78;;;26.60;99.90;;;;;;4940082;29;20034;-57
2023/06/15 02:02:57;;;;;;;7.72;2.75;;;26.60;99.90;;;;;;4945375;29;20062;-56
2023/06/15 02:05:23;;;;;;;6.40;2.20;;;26.60;99.90;;;;;;4950952;29;20550;-57
2023/06/15 02:07:49;;;;;;;6.80;2.30;;;26.60;99.90;;;;;;4954550;29;20054;-57
2023/06/15 02:10:15;;;;;;;7.22;3.00;;;26.60;99.90;;;;;;4940257;29;20023;-57
2023/06/15 02:12:41;;;;;;;5.90;2.58;;;26.70;99.90;;;;;;4935591;29;20106;-56
2023/06/15 02:15:08;;;;;;;8.55;3.03;;;26.60;99.90;;;;;;4947212;29;20118;-56
2023/06/15 02:17:38;;;;;;;7.30;2.45;;;26.70;99.90;;;;;;4941642;29;20391;-56
2023/06/15 02:20:08;;;;;;;9.07;1.88;;;26.70;99.90;;;;;;4941820;29;20020;-55
2023/06/15 02:22:33;;;;;;;6.03;2.42;;;26.70;99.90;;;;;;4947822;29;20079;-56
2023/06/15 02:24:59;;;;;;;7.63;2.80;;;26.70;99.90;;;;;;4935864;29;20032;-56
2023/06/15 02:27:25;;;;;;;6.45;2.47;;;26.70;99.90;;;;;;4934927;29;20023;-56
2023/06/15 02:29:51;;;;;;;6.80;2.45;;;26.70;99.90;;;;;;4945329;29;20520;-61
2023/06/15 02:32:39;;;;;;;6.55;2.90;;;26.70;99.90;;;;;;4937295;29;20082;-57
2023/06/15 02:35:08;;;;;;;4.55;1.90;;;26.70;99.90;;;;;;4946412;29;20099;-55
2023/06/15 02:37:34;;;;;;;6.30;2.33;;;26.70;99.90;;;;;;4935648;29;20385;-55
2023/06/15 02:40:00;;;;;;;4.18;2.30;;;26.80;99.90;;;;;;4933795;29;20024;-55
2023/06/15 02:42:25;;;;;;;5.18;2.38;;;26.80;99.90;;;;;;4947385;29;20043;-54
2023/06/15 02:44:51;;;;;;;7.00;2.67;;;26.80;99.90;;;;;;4933807;29;20028;-57
2023/06/15 02:47:17;;;;;;;9.05;2.47;;;26.80;99.90;;;;;;4935083;29;20016;-56
2023/06/15 02:49:43;;;;;;;9.38;3.00;;;26.70;99.90;;;;;;4934881;29;20469;-55
2023/06/15 02:52:09;;;;;;;8.68;3.22;;;26.70;99.90;;;;;;4934590;29;20036;-55
2023/06/15 02:54:36;;;;;;;6.22;2.67;;;26.80;99.90;;;;;;4934736;29;20032;-55
2023/06/15 02:57:07;;;;;;;7.55;2.70;;;26.80;99.90;;;;;;4938530;29;20020;-55
2023/06/15 02:59:34;;;;;;;6.43;2.58;;;26.80;99.90;;;;;;4953980;29;20023;-54
2023/06/15 03:02:00;;;;;;;7.15;2.70;;;26.80;99.90;;;;;;4948572;23;20051;-48
2023/06/15 03:04:27;;;;;;;8.95;2.55;;;26.80;99.90;;;;;;4934698;29;20377;-48
2023/06/15 03:06:54;;;;;;;5.43;2.03;;;26.80;99.90;;;;;;4934687;29;20028;-48
2023/06/15 03:09:20;;;;;;;;;;;26.80;99.90;;;;;;4935270;29;20135;-47
2023/06/15 03:11:46;;;;;;;5.07;1.90;;;26.80;99.90;;;;;;4934762;29;19922;-48
2023/06/15 03:14:12;;;;;;;5.28;2.17;;;26.80;99.90;;;;;;4934733;29;20035;-49
2023/06/15 03:16:46;;;;;;;5.65;2.03;;;26.80;99.90;;;;;;4934569;29;20381;-47
2023/06/15 03:19:15;;;;;;;5.40;2.55;;;26.80;99.90;;;;;;4934478;29;20024;-47
2023/06/15 03:21:42;;;;;;;5.82;2.30;;;26.80;99.90;;;;;;4934600;29;20039;-47
2023/06/15 03:24:09;;;;;;;5.95;2.00;;;26.80;99.90;;;;;;4934654;29;20035;-48
2023/06/15 03:26:37;;;;;;;5.27;2.07;;;26.80;99.90;;;;;;4934667;29;20024;-48
2023/06/15 03:29:04;;;;;;;6.47;2.10;;;26.70;99.90;;;;;;4934403;29;20015;-48
2023/06/15 03:31:33;;;;;;;5.85;1.90;;;26.80;99.90;;;;;;4934876;29;20115;-46
2023/06/15 03:34:00;;;;;;;3.00;1.80;;;26.70;99.90;;;;;;4936815;29;20027;-49
2023/06/15 03:36:30;;;;;;;4.35;1.90;;;26.70;99.90;;;;;;4938429;29;20035;-50
2023/06/15 03:38:58;;;;;;;3.63;1.70;;;26.70;99.90;;;;;;4925574;29;20034;-50
2023/06/15 03:41:29;;;;;;;6.03;2.53;;;26.80;99.90;;;;;;4938019;29;20020;-49
2023/06/15 03:43:55;;;;;;;4.57;1.95;;;26.70;99.90;;;;;;4937120;29;20031;-48
2023/06/15 03:46:21;;;;;;;4.30;2.38;;;26.80;99.90;;;;;;4937927;29;20031;-48
2023/06/15 03:48:49;;;;;;;3.15;1.83;;;26.80;99.90;;;;;;4938078;29;20062;-48
2023/06/15 03:51:14;;;;;;;5.32;1.90;;;26.70;99.90;;;;;;4937920;29;20094;-48
2023/06/15 03:53:44;;;;;;;5.55;2.00;;;26.80;99.90;;;;;;4937705;29;20024;-47
2023/06/15 03:56:10;;;;;;;3.92;1.50;;;26.70;99.90;;;;;;4937766;29;20039;-48
2023/06/15 03:58:36;;;;;;;6.00;1.90;;;26.70;99.90;;;;;;4937539;29;20106;-48
2023/06/15 04:01:04;;;;;;;3.33;1.70;;;26.70;99.90;;;;;;4938112;29;20146;-48
2023/06/15 04:03:34;;;;;;;3.40;2.00;;;26.70;99.90;;;;;;4936354;29;20106;-48
2023/06/15 04:06:03;;;;;;;4.05;1.83;;;26.70;99.90;;;;;;4937634;29;20052;-48
2023/06/15 04:08:29;;;;;;;3.78;1.60;;;26.70;99.90;;;;;;4937501;29;20448;-48
2023/06/15 04:10:56;;;;;;;4.63;1.50;;;26.70;99.90;;;;;;4937431;29;20036;-48
2023/06/15 04:13:23;;;;;;;;;;;26.70;99.90;;;;;;4937960;29;20476;-50
2023/06/15 04:15:49;;;;;;;3.10;1.60;;;26.70;99.90;;;;;;4937757;29;19914;-49
2023/06/15 04:18:14;;;;;;;4.07;2.13;;;26.70;99.90;;;;;;4937573;29;20489;-49
2023/06/15 04:20:40;;;;;;;3.83;2.00;;;26.70;99.90;;;;;;4937220;29;20114;-46
2023/06/15 04:23:06;;;;;;;6.63;1.92;;;26.70;99.90;;;;;;4937349;29;20055;-48
2023/06/15 04:25:35;;;;;;;9.02;2.40;;;26.70;99.90;;;;;;4936014;29;20047;-48
2023/06/15 04:28:05;;;;;;;6.45;2.40;;;26.70;99.90;;;;;;4937079;29;20082;-49
2023/06/15 04:30:32;;;;;;;5.60;2.53;;;26.70;99.90;;;;;;4936989;29;20384;-49
2023/06/15 04:32:59;;;;;;;5.43;2.83;;;26.70;99.90;;;;;;4937037;29;20489;-49
2023/06/15 04:35:31;;;;;;;5.28;2.38;;;26.70;99.90;;;;;;4936988;29;20436;-50
2023/06/15 04:37:58;;;;;;;6.55;2.67;;;26.70;99.90;;;;;;4935712;29;20180;-49
2023/06/15 04:40:26;;;;;;;7.32;2.47;;;26.70;99.90;;;;;;4937137;29;20020;-49
2023/06/15 04:42:53;;;;;;;7.65;3.05;;;26.70;99.90;;;;;;4936525;29;20035;-49
2023/06/15 04:45:19;;;;;;;7.50;2.60;;;26.70;99.90;;;;;;4936501;29;20020;-48
2023/06/15 04:47:47;;;;;;;7.05;2.58;;;26.80;99.90;;;;;;4936951;29;20031;-49
2023/06/15 04:50:13;;;;;;;;;;;26.70;99.90;;;;;;4937121;29;20031;-48
2023/06/15 04:52:40;;;;;;;6.93;2.65;;;26.70;99.90;;;;;;4936724;29;19919;-48
2023/06/15 04:55:06;;;;;;;6.82;2.75;;;26.80;99.90;;;;;;4936703;29;20109;-49
2023/06/15 04:57:32;;;;;;;8.20;2.63;;;26.70;99.90;;;;;;4936651;29;20106;-51
2023/06/15 04:59:58;;;;;;;5.85;2.33;;;26.80;99.90;;;;;;4936859;29;20107;-49
2023/06/15 05:02:24;;;;;;;8.10;3.03;;;26.70;99.90;;;;;;4919453;29;20040;-49
2023/06/15 05:04:50;;;;;;;9.32;3.03;;;26.70;99.90;;;;;;4936575;29;20035;-48
2023/06/15 05:07:15;;;;;;;5.70;2.67;;;26.70;99.90;;;;;;4936309;29;20083;-49
2023/06/15 05:09:42;;;;;;;11.70;4.07;;;26.70;99.90;;;;;;4936345;29;20079;-49
2023/06/15 05:12:08;;;;;;;5.75;2.63;;;26.70;99.90;;;;;;4936296;29;20050;-49
2023/06/15 05:14:34;;;;;;;9.65;3.03;;;26.70;99.90;;;;;;4935198;29;20027;-50
2023/06/15 05:17:03;;;;;;;7.13;3.08;;;26.70;99.90;;;;;;4936292;29;20112;-49
2023/06/15 05:19:30;;;;;;;8.70;2.65;;;26.70;99.90;;;;;;4936246;29;20106;-49
2023/06/15 05:22:01;;;;;;;8.73;3.35;;;26.70;99.90;;;;;;4936200;29;20103;-49
2023/06/15 05:24:27;;;;;;;8.52;3.28;;;26.70;99.90;;;;;;4936433;29;20032;-49
2023/06/15 05:26:53;;;;;;;7.82;2.85;;;26.70;99.90;;;;;;4936331;29;20139;-49
2023/06/15 05:29:19;;;;;;;6.43;2.40;;;26.70;99.90;;;;;;4935977;29;20555;-49
2023/06/15 05:31:45;;;;;;;7.90;2.90;;;26.70;99.90;;;;;;4935886;29;20027;-49
2023/06/15 05:34:11;;;;;;;8.15;3.00;;;26.70;99.90;;;;;;4935850;29;20015;-49
2023/06/15 05:36:37;;;;;;;10.88;2.85;;;26.70;99.90;;;;;;4936007;29;20028;-49
2023/06/15 05:39:03;;;;;;;8.43;2.35;;;26.70;99.90;;;;;;4935806;29;20020;-49
2023/06/15 05:41:29;;;;;;;5.82;2.17;;;26.70;99.90;;;;;;4935850;29;20020;-49
2023/06/15 05:43:55;;;;;;;6.43;2.42;;;26.70;99.90;;;;;;4935697;29;20019;-48
2023/06/15 05:46:21;;;;;;;5.20;2.22;;;26.70;99.90;;;;;;4935795;29;20031;-49
2023/06/15 05:48:47;;;;;;;3.22;2.00;;;26.70;99.90;;;;;;4935509;29;20107;-49
2023/06/15 05:51:13;;;;;;;5.53;2.22;;;26.60;99.90;;;;;;4934215;29;20179;-50
2023/06/15 05:53:39;;;;;;;9.27;2.30;;;26.70;99.90;;;;;;4934460;29;20447;-50
2023/06/15 05:56:05;;;;;;;5.63;2.40;;;26.60;99.90;;;;;;4935288;29;20024;-50
2023/06/15 05:58:31;;;;;;;5.13;2.08;;;26.70;99.90;;;;;;4934114;29;20028;-50
2023/06/15 06:00:56;;;;;;;4.75;2.08;;;26.70;99.90;;;;;;4935509;29;20127;-49
2023/06/15 06:03:22;;;;;;;5.43;2.22;;;26.60;99.90;;;;;;4935498;29;20035;-50
2023/06/15 06:05:48;;;;;;;4.95;2.08;;;26.70;99.90;;;;;;4935287;29;20028;-50
2023/06/15 06:08:13;;;;;;;4.35;2.35;;;26.60;99.90;;;;;;4935386;29;20028;-50
2023/06/15 06:10:40;;;;;;;4.78;2.13;;;26.70;99.90;;;;;;4934980;29;20028;-49
2023/06/15 06:13:06;;;;;;;4.75;2.03;;;26.60;99.90;;;;;;4935375;29;20059;-49
2023/06/15 06:15:31;;;;;;;3.33;2.20;;;26.70;99.90;;;;;;4935167;29;20436;-50
2023/06/15 06:17:57;;;;;;;5.90;2.70;;;26.70;99.90;;;;;;4935420;29;20119;-49
2023/06/15 06:20:23;;;;;;;4.63;1.90;;;26.60;99.90;;;;;;4933758;29;20034;-50
2023/06/15 06:22:49;;;;;;;5.28;2.53;;;26.60;99.90;;;;;;4935255;29;20071;-50
2023/06/15 06:25:14;;;;;;;6.70;1.92;;;26.70;99.90;;;;;;4935111;29;20024;-50
2023/06/15 06:27:40;;;;;;;4.45;2.05;;;26.70;99.90;;;;;;4934862;29;20035;-50
2023/06/15 06:30:07;;;;;;;3.78;2.05;;;26.70;99.90;;;;;;4935135;29;20136;-49
2023/06/15 06:32:32;;;;;;;3.13;1.85;;;26.70;99.90;;;;;;4934853;29;20055;-50
2023/06/15 06:34:58;;;;;;;5.55;2.30;;;26.70;99.90;;;;;;4935238;29;20019;-50
2023/06/15 06:37:26;;;;;;;7.05;2.30;;;26.70;99.90;;;;;;4934805;29;20030;-50
2023/06/15 06:39:52;;;;;;;6.97;2.60;;;26.70;99.90;;;;;;4934933;29;20497;-50
2023/06/15 06:42:18;;;;;;;6.10;2.67;;;26.70;99.90;;;;;;4934727;29;20102;-50
2023/06/15 06:44:44;;;;;;;5.82;2.67;;;26.70;99.90;;;;;;4934789;29;20030;-50
2023/06/15 06:47:10;;;;;;;5.22;2.78;;;26.70;99.90;;;;;;4934779;29;20012;-49
2023/06/15 06:49:36;;;;;;;3.10;2.40;;;26.70;99.90;;;;;;4933425;29;20436;-50
2023/06/15 06:52:02;;;;;;;7.40;2.75;;;26.80;99.90;;;;;;4934573;29;20067;-50
2023/06/15 06:54:28;;;;;;;8.77;3.20;;;26.70;99.90;;;;;;4934915;29;20492;-51
2023/06/15 06:56:54;;;;;;;8.50;3.10;;;26.70;99.90;;;;;;4934660;29;20024;-52
2023/06/15 06:59:20;;;;;;;6.57;2.38;;;26.70;99.90;;;;;;4934765;29;20059;-51
2023/06/15 07:01:46;;;;;;;5.20;2.35;;;26.70;99.90;;;;;;4933251;29;20073;-51
2023/06/15 07:04:12;;;;;;;6.68;2.97;;;26.70;99.90;;;;;;4934624;29;20048;-49
2023/06/15 07:06:38;;;;;;;8.18;2.70;;;26.70;99.90;;;;;;4934510;29;20519;-50
2023/06/15 07:09:04;;;;;;;6.28;2.70;;;26.80;99.90;;;;;;4938420;29;20051;-49
2023/06/15 07:11:29;;;;;;;9.52;3.30;;;26.80;99.90;;;;;;4938752;29;20050;-49
2023/06/15 07:13:55;;;;;;;7.80;3.25;;;26.80;99.90;;;;;;4938331;29;20019;-49
2023/06/15 07:16:21;;;;;;;8.32;2.92;;;26.80;99.90;;;;;;4938551;29;20134;-49
2023/06/15 07:18:47;;;;;;;6.78;3.00;;;26.80;99.90;;;;;;4921249;29;20055;-49
2023/06/15 07:21:12;;;;;;;5.28;3.05;;;26.80;99.90;;;;;;4938434;29;20024;-49
2023/06/15 07:23:38;;;;;;;7.10;2.92;;;26.80;99.90;;;;;;4938265;29;20028;-50
2023/06/15 07:26:04;;;;;;;8.02;2.58;;;26.80;99.90;;;;;;4938441;29;20465;-49
2023/06/15 07:28:30;;;;;;;8.32;2.67;;;26.80;99.90;;;;;;4938222;29;20027;-50
2023/06/15 07:30:56;;;;;;;9.60;3.00;;;26.80;99.90;;;;;;4937897;29;20035;-50
2023/06/15 07:33:22;;;;;;;8.85;3.47;;;26.80;99.90;;;;;;4938104;29;20024;-49
2023/06/15 07:35:48;;;;;;;8.20;3.13;;;26.80;99.90;;;;;;4937957;29;20024;-50
2023/06/15 07:38:14;;;;;;;13.45;4.10;;;26.80;99.90;;;;;;4937031;29;20036;-50
2023/06/15 07:40:40;;;;;;;12.13;3.30;;;26.80;99.90;;;;;;4936823;29;20048;-50
2023/06/15 07:43:06;;;;;;;6.25;2.53;;;26.80;99.90;;;;;;4936646;29;20023;-51
2023/06/15 07:45:32;;;;;;;5.65;2.83;;;26.80;99.90;;;;;;4938108;29;20047;-49
2023/06/15 07:47:57;;;;;;;7.28;2.95;;;26.80;99.90;;;;;;4937945;29;20140;-49
2023/06/15 07:50:23;;;;;;;9.07;3.35;;;26.80;99.90;;;;;;4937734;29;20603;-50
2023/06/15 07:52:51;;;;;;;8.82;3.67;;;26.80;99.90;;;;;;4937845;29;20039;-50
2023/06/15 07:55:16;;;;;;;11.38;3.72;;;26.80;99.90;;;;;;4937656;29;20023;-50
2023/06/15 07:57:42;;;;;;;8.15;3.17;;;26.90;99.90;;;;;;4937825;29;20039;-50
2023/06/15 08:00:10;;;;;;;10.98;3.55;;;26.80;99.90;;;;;;4937698;29;20027;-49
2023/06/15 08:02:35;;;;;;;9.02;3.47;;;26.90;99.90;;;;;;4937373;29;20051;-49
2023/06/15 08:05:02;;;;;;;8.45;2.92;;;26.90;99.90;;;;;;4937915;29;20023;-49
2023/06/15 08:07:28;;;;;;;13.73;3.40;;;26.90;99.90;;;;;;4937329;29;20031;-48
2023/06/15 08:09:55;;;;;;;9.75;3.63;;;26.80;99.90;;;;;;4937487;29;20020;-49
2023/06/15 08:12:21;;;;;;;10.20;3.42;;;26.80;99.90;;;;;;4937209;29;20038;-49
2023/06/15 08:14:47;;;;;;;7.38;3.15;;;26.90;99.90;;;;;;4937544;29;20024;-49
2023/06/15 08:17:13;;;;;;;8.15;3.28;;;26.90;99.90;;;;;;4936984;29;20500;-49
2023/06/15 08:19:39;;;;;;;10.05;3.50;;;26.90;99.90;;;;;;4937255;29;20444;-49
2023/06/15 08:22:05;;;;;;;5.85;2.92;;;26.90;99.90;;;;;;4936341;29;20067;-51
2023/06/15 08:24:31;;;;;;;7.10;2.60;;;26.90;99.90;;;;;;4937499;29;20476;-51
2023/06/15 08:26:59;;;;;;;6.55;3.05;;;26.90;99.90;;;;;;4936130;29;20035;-50
2023/06/15 08:29:24;;;;;;;8.60;3.67;;;26.90;99.90;;;;;;4937175;29;20488;-50
2023/06/15 08:31:51;;;;;;;5.75;2.92;;;26.80;99.90;;;;;;4936934;29;20047;-50
2023/06/15 08:34:17;;;;;;;6.78;3.22;;;26.90;99.90;;;;;;4937090;29;20494;-50
2023/06/15 08:36:42;;;;;;;7.15;3.10;;;26.80;99.90;;;;;;4936966;29;20040;-50
2023/06/15 08:39:08;;;;;;;8.40;2.67;;;26.90;99.90;;;;;;4924293;29;20099;-50
2023/06/15 08:41:38;;;;;;;8.27;3.03;;;26.90;99.90;;;;;;4936879;29;20027;-49
2023/06/15 08:44:07;;;;;;;7.30;3.28;;;26.90;99.90;;;;;;4922316;29;20015;-49
2023/06/15 08:46:33;;;;;;;5.47;2.78;;;26.90;99.90;;;;;;4936914;29;20114;-48
2023/06/15 08:49:00;;;;;;;9.07;3.35;;;26.90;99.90;;;;;;4936632;29;20084;-50
2023/06/15 08:51:25;;;;;;;6.47;2.95;;;26.90;99.90;;;;;;4936857;29;20115;-49
2023/06/15 08:53:56;;;;;;;5.60;2.72;;;26.90;99.90;;;;;;4936395;29;20099;-49
2023/06/15 08:56:22;;;;;;;5.38;2.80;;;26.90;99.90;;;;;;4936421;29;20500;-48
2023/06/15 08:58:50;;;;;;;4.97;2.85;;;26.90;99.90;;;;;;4936458;29;20429;-49
2023/06/15 09:01:22;;;;;;;5.30;3.10;;;26.90;99.90;;;;;;4935752;29;20048;-50
2023/06/15 09:03:53;;;;;;;7.43;3.53;;;26.90;99.90;;;;;;4936232;29;20038;-49
2023/06/15 09:06:23;;;;;;;7.47;3.60;;;26.90;99.90;;;;;;4936377;29;20560;-49
2023/06/15 09:08:51;;;;;;;5.63;2.78;;;26.90;99.90;;;;;;4936377;29;20107;-48
2023/06/15 09:11:18;;;;;;;3.97;2.05;;;26.90;99.90;;;;;;4934382;29;20116;-48
2023/06/15 09:13:44;;;;;;;5.30;2.45;;;26.90;99.90;;;;;;4936476;29;20032;-49
2023/06/15 09:16:11;;;;;;;3.90;2.00;;;27.00;99.90;;;;;;4936349;29;20075;-49
2023/06/15 09:18:43;;;;;;;6.82;3.33;;;27.00;99.90;;;;;;4936213;29;20032;-49
2023/06/15 09:21:12;;;;;;;7.97;3.65;;;27.00;99.90;;;;;;4936043;29;20020;-49
2023/06/15 09:23:44;;;;;;;10.10;4.57;;;27.00;99.90;;;;;;4936074;29;20384;-49
2023/06/15 09:26:23;;;;;;;7.97;4.07;;;27.00;99.90;;;;;;4934789;29;20445;-48
2023/06/15 09:28:49;;;;;;;6.10;3.90;;;27.00;99.90;;;;;;4935924;29;20503;-49
2023/06/15 09:31:32;;;;;;;15.23;4.53;;;27.00;99.90;;;;;;4934707;29;20032;-51
2023/06/15 09:34:03;;;;;;;10.52;5.88;;;27.00;99.90;;;;;;4935846;29;20079;-51
2023/06/15 09:36:35;;;;;;;12.07;5.80;;;27.00;99.90;;;;;;4936386;29;20333;-51
2023/06/15 09:39:03;;;;;;;12.88;4.90;;;27.00;99.90;;;;;;4935922;29;20051;-51
2023/06/15 09:41:29;;;;;;;9.45;4.20;;;27.00;99.90;;;;;;4935540;29;20023;-51
2023/06/15 09:43:55;;;;;;;8.00;3.58;;;27.10;99.90;;;;;;4935673;29;20019;-51
2023/06/15 09:46:27;;;;;;;10.70;4.60;;;27.10;99.90;;;;;;4935620;29;20031;-49
2023/06/15 09:48:53;;;;;;;8.77;4.07;;;27.10;99.90;;;;;;4935594;29;20020;-48
2023/06/15 09:51:20;;;;;;;8.98;4.10;;;27.10;99.90;;;;;;4935495;29;20408;-48
2023/06/15 09:53:48;;;;;;;10.32;5.20;;;27.10;99.90;;;;;;4935550;29;20027;-49
2023/06/15 09:56:14;;;;;;;7.18;3.78;;;27.10;99.90;;;;;;4935469;29;20027;-49
2023/06/15 09:58:40;;;;;;;11.05;5.40;;;27.10;99.90;;;;;;4935638;29;20083;-49
2023/06/15 10:01:10;;;;;;;16.75;5.93;;;27.20;99.90;;;;;;4935425;29;20078;-49
2023/06/15 10:03:39;;;;;;;12.68;5.07;;;27.20;99.90;;;;;;4935466;29;20087;-50
2023/06/15 10:06:17;;;;;;;16.48;5.35;;;27.20;99.90;;;;;;4933858;29;20051;-52
2023/06/15 10:08:51;;;;;;;11.25;5.13;;;27.20;99.90;;;;;;4935327;29;20027;-50
2023/06/15 10:11:19;;;;;;;14.30;4.78;;;27.20;99.90;;;;;;4926516;29;20032;-48
2023/06/15 10:14:11;;;;;;;12.75;5.00;;;27.20;99.90;;;;;;4928459;29;20027;-50
2023/06/15 10:16:40;;;;;;;10.13;4.95;;;27.20;99.90;;;;;;4922727;29;20230;-50
2023/06/15 10:19:11;;;;;;;10.68;5.10;;;27.20;99.90;;;;;;4931598;29;20097;-51
2023/06/15 10:21:42;;;;;;;18.08;4.70;;;27.20;99.90;;;;;;4930957;29;20023;-51
2023/06/15 10:24:16;;;;;;;7.85;4.30;;;27.20;99.90;;;;;;4924267;29;20642;-51
2023/06/15 10:26:45;;;;;;;6.53;3.72;;;27.30;99.90;;;;;;4931299;29;20028;-53
2023/06/15 10:29:31;;;;;;;6.50;3.10;;;27.30;99.90;;;;;;4916974;29;20030;-50
2023/06/15 10:32:12;;;;;;;5.13;2.55;;;27.30;99.90;;;;;;4928998;29;20062;-51
2023/06/15 10:34:40;;;;;;;5.40;2.40;;;27.30;99.90;;;;;;4930168;29;20032;-49
2023/06/15 10:37:12;;;;;;;6.10;2.42;;;27.30;99.90;;;;;;4930942;29;20036;-49
2023/06/15 10:39:44;;;;;;;4.63;2.28;;;27.30;99.90;;;;;;4932433;29;20023;-49
2023/06/15 10:42:13;;;;;;;10.88;2.67;;;27.30;99.90;;;;;;4933392;29;20020;-50
2023/06/15 10:44:38;;;;;;;4.97;2.60;;;27.40;99.90;;;;;;4934371;29;20027;-50
2023/06/15 10:47:08;;;;;;;4.43;2.13;;;27.40;99.90;;;;;;4933802;29;20071;-50
2023/06/15 10:49:35;;;;;;;6.32;2.30;;;27.40;99.90;;;;;;4934395;29;20028;-50
2023/06/15 10:52:05;;;;;;;5.05;1.83;;;27.40;99.90;;;;;;4933970;29;20035;-50
2023/06/15 10:54:31;;;;;;;5.43;2.13;;;27.40;99.90;;;;;;4934580;29;20094;-50
2023/06/15 10:56:57;;;;;;;9.02;3.10;;;27.40;99.90;;;;;;4934427;29;20023;-49
2023/06/15 10:59:41;;;;;;;5.75;3.00;;;27.40;99.90;;;;;;4934657;29;20019;-49
2023/06/15 11:02:31;;;;;;;6.43;3.15;;;27.50;99.90;;;;;;4932929;29;20047;-49
2023/06/15 11:05:08;;;;;;;6.22;3.17;;;27.50;99.90;;;;;;4934532;29;20027;-48
2023/06/15 11:07:39;;;;;;;5.57;3.08;;;27.50;99.90;;;;;;4933265;29;20560;-50
2023/06/15 11:10:27;;;;;;;8.93;2.92;;;27.50;99.90;;;;;;4934531;29;20111;-50
2023/06/15 11:13:01;;;;;;;4.53;2.55;;;27.50;99.90;;;;;;4934560;29;20496;-51
2023/06/15 11:15:33;;;;;;;6.60;3.05;;;27.50;99.90;;;;;;4934362;29;20035;-51
2023/06/15 11:18:00;;;;;;;3.78;2.53;;;27.50;99.90;;;;;;4928760;29;20416;-50
2023/06/15 11:20:47;;;;;;;;;;;27.60;99.90;;;;;;4928728;29;20502;-50
2023/06/15 11:23:19;;;;;;;6.60;2.10;;;27.60;99.90;;;;;;4915072;29;19911;-50
2023/06/15 11:25:55;;;;;;;4.95;2.67;;;27.60;99.90;;;;;;4922237;29;20028;-51
2023/06/15 11:28:24;;;;;;;6.82;2.78;;;27.60;99.90;;;;;;4931644;29;20333;-50
2023/06/15 11:30:51;;;;;;;2.78;2.20;;;27.70;99.90;;;;;;4930527;29;20552;-51
2023/06/15 11:33:36;;;;;;;2.72;1.95;;;27.70;99.90;;;;;;4929420;29;20050;-51
2023/06/15 11:36:04;;;;;;;6.13;2.15;;;27.70;99.90;;;;;;4930132;29;20024;-50
2023/06/15 11:38:30;;;;;;;4.45;2.08;;;27.70;99.90;;;;;;4930389;29;20056;-50
2023/06/15 11:41:14;;;;;;;3.17;1.77;;;27.70;99.90;;;;;;4930155;29;20099;-50
2023/06/15 11:43:48;;;;;;;5.35;2.03;;;27.70;99.90;;;;;;4917912;29;20107;-51
2023/06/15 11:46:16;;;;;;;5.05;1.67;;;27.80;99.90;;;;;;4927634;29;20185;-51
2023/06/15 11:48:44;;;;;;;;;;;27.80;99.90;;;;;;4931130;29;20520;-51
2023/06/15 11:51:12;;;;;;;5.88;2.08;;;27.80;99.90;;;;;;4930566;29;19918;-50
2023/06/15 11:53:39;;;;;;;3.83;1.90;;;27.80;99.90;;;;;;4932217;29;20043;-52
2023/06/15 11:56:08;;;;;;;4.72;1.85;;;27.90;99.90;;;;;;4933288;29;20028;-50
2023/06/15 11:58:35;;;;;;;4.00;2.17;;;27.80;99.90;;;;;;4930363;29;20114;-50
2023/06/15 12:01:01;;;;;;;5.88;2.17;;;27.90;99.90;;;;;;4933439;29;20040;-49
2023/06/15 12:03:27;;;;;;;3.72;2.22;;;27.90;99.90;;;;;;4934195;29;20154;-49
2023/06/15 12:05:57;;;;;;;8.57;2.50;;;27.90;99.90;;;;;;4933399;29;20461;-49
2023/06/15 12:08:27;;;;;;;4.60;2.00;;;27.90;99.90;;;;;;4932360;29;20015;-51
2023/06/15 12:10:55;;;;;;;5.18;2.17;;;27.90;99.90;;;;;;4917990;29;20401;-49
2023/06/15 12:13:23;;;;;;;4.32;1.95;;;28.00;99.90;;;;;;4933414;29;20090;-50
2023/06/15 12:15:50;;;;;;;4.88;2.35;;;28.00;99.90;;;;;;4924587;29;20060;-52
2023/06/15 12:18:17;;;;;;;4.68;2.05;;;28.00;99.90;;;;;;4920247;29;20039;-50
2023/06/15 12:20:44;;;;;;;6.95;2.22;;;28.00;99.90;;;;;;4919304;29;20035;-50
2023/06/15 12:23:10;;;;;;;5.93;2.45;;;28.00;99.90;;;;;;4919541;29;20377;-53
2023/06/15 12:25:43;;;;;;;4.43;1.95;;;28.00;99.90;;;;;;4929053;29;20038;-52
2023/06/15 12:28:21;;;;;;;4.60;2.22;;;28.00;99.90;;;;;;4932958;29;20110;-50
2023/06/15 12:30:47;;;;;;;6.07;2.33;;;28.10;99.90;;;;;;4933038;29;20050;-49
2023/06/15 12:33:30;;;;;;;5.20;2.38;;;28.10;99.90;;;;;;4933955;29;20020;-50
2023/06/15 12:36:00;;;;;;;4.28;2.15;;;28.10;99.90;;;;;;4919323;29;20102;-50
2023/06/15 12:38:28;;;;;;;3.08;1.70;;;28.10;99.90;;;;;;4927599;29;20040;-51
2023/06/15 12:40:55;;;;;;;4.38;1.67;;;28.20;99.90;;;;;;4927441;29;20488;-51
2023/06/15 12:43:22;;;;;;;4.38;1.70;;;28.20;99.90;;;;;;4932933;29;20063;-51
2023/06/15 12:45:48;;;;;;;4.32;1.70;;;28.20;99.90;;;;;;4930565;29;20094;-51
2023/06/15 12:48:14;;;;;;;2.35;1.42;;;28.20;99.90;;;;;;4932496;29;20028;-51
2023/06/15 12:50:40;;;;;;;1.88;1.40;;;28.20;99.90;;;;;;4933155;29;20032;-51